Time;durP1;ratioP1;P1;durP2;ratioP2;P2;SDS_P1;SDS_P2;PMS_P1;PMS_P2;Temp;Humidity;BMP_temperature;BMP_pressure;BME280_temperature;BME280_humidity;BME280_pressure;Samples;Min_cycle;Max_cycle;Signal;HPM_P1;HPM_P2
2022/03/18 00:01:48;;;;;;;;;;;7.80;99.90;;;;;;5055288;28;19915;-76
2022/03/18 00:04:13;;;;;;;;;;;7.80;99.90;;;;;;5053898;28;20293;-76
2022/03/18 00:06:40;;;;;;;;;;;7.90;99.90;;;;;;5055433;28;19909;-76
2022/03/18 00:09:06;;;;;;;;;;;8.00;99.90;;;;;;5055139;28;19919;-76
2022/03/18 00:11:31;;;;;;;;;;;8.00;99.90;;;;;;5055093;28;19912;-76
2022/03/18 00:13:58;;;;;;;;;;;8.00;99.90;;;;;;5054943;28;19940;-76
2022/03/18 00:16:24;;;;;;;;;;;7.90;99.90;;;;;;5053673;28;19916;-76
2022/03/18 00:18:49;;;;;;;;;;;7.90;99.90;;;;;;5055094;28;19916;-76
2022/03/18 00:21:16;;;;;;;;;;;7.90;99.90;;;;;;5054847;28;19991;-76
2022/03/18 00:23:41;;;;;;;;;;;7.90;99.90;;;;;;5054860;28;19909;-75
2022/03/18 00:26:07;;;;;;;;;;;7.90;99.90;;;;;;5055018;28;19959;-76
2022/03/18 00:28:33;;;;;;;;;;;7.40;99.90;;;;;;5054948;28;19909;-76
2022/03/18 00:30:58;;;;;;;;;;;7.10;99.90;;;;;;5054779;28;19909;-75
2022/03/18 00:33:25;;;;;;;;;;;6.90;99.90;;;;;;5054634;28;19909;-76
2022/03/18 00:35:51;;;;;;;;;;;6.80;99.90;;;;;;5054627;28;20332;-76
2022/03/18 00:38:16;;;;;;;;;;;6.60;99.90;;;;;;5054360;28;20010;-76
2022/03/18 00:40:44;;;;;;;;;;;6.70;99.90;;;;;;5053225;28;19963;-76
2022/03/18 00:43:10;;;;;;;;;;;6.70;99.90;;;;;;5054461;28;19909;-76
2022/03/18 00:45:36;;;;;;;;;;;6.60;99.90;;;;;;5054412;28;19916;-76
2022/03/18 00:53:30;;;;;;;;;;;6.60;99.90;;;;;;5054002;28;19932;-76
2022/03/18 00:55:55;;;;;;;;;;;6.70;99.90;;;;;;5054698;28;20397;-76
2022/03/18 00:58:21;;;;;;;;;;;6.70;99.90;;;;;;5054167;28;20011;-75
2022/03/18 01:00:47;;;;;;;;;;;6.70;99.90;;;;;;5054131;28;19909;-76
2022/03/18 01:03:15;;;;;;;;;;;6.90;99.90;;;;;;5054223;28;19916;-76
2022/03/18 01:05:42;;;;;;;;;;;7.00;99.90;;;;;;5052791;28;20363;-76
2022/03/18 01:08:08;;;;;;;;;;;6.90;99.90;;;;;;5054018;28;19984;-76
2022/03/18 01:10:33;;;;;;;;;;;6.90;99.90;;;;;;5053943;28;20016;-76
2022/03/18 01:12:59;;;;;;;;;;;6.80;99.90;;;;;;5054216;28;19909;-76
2022/03/18 01:15:24;;;;;;;;;;;6.80;99.90;;;;;;5053592;28;20342;-76
2022/03/18 01:17:51;;;;;;;;;;;6.80;99.90;;;;;;5054306;28;19912;-76
2022/03/18 01:20:16;;;;;;;;;;;6.80;99.90;;;;;;5054399;28;20354;-76
2022/03/18 01:22:42;;;;;;;;;;;6.70;99.90;;;;;;5052511;28;19963;-76
2022/03/18 01:25:08;;;;;;;;;;;6.50;99.90;;;;;;5054079;28;19909;-76
2022/03/18 01:27:33;;;;;;;;;;;6.60;99.90;;;;;;5053683;28;19991;-76
2022/03/18 01:29:59;;;;;;;;;;;6.60;99.90;;;;;;5054007;28;19919;-76
2022/03/18 01:32:25;;;;;;;;;;;6.40;99.90;;;;;;5052443;28;20293;-76
2022/03/18 01:34:50;;;;;;;;;;;6.40;99.90;;;;;;5053631;28;19944;-77
2022/03/18 01:37:16;;;;;;;;;;;6.60;99.90;;;;;;5053596;28;19908;-76
2022/03/18 01:39:41;;;;;;;;;;;6.70;99.90;;;;;;5051851;28;20420;-77
2022/03/18 01:42:07;;;;;;;;;;;6.70;99.90;;;;;;5053848;28;19952;-76
2022/03/18 01:44:43;;;;;;;;;;;6.70;99.90;;;;;;5053535;28;19992;-76
2022/03/18 01:47:09;;;;;;;;;;;6.70;99.90;;;;;;5054503;28;19916;-76
2022/03/18 01:49:34;;;;;;;;;;;6.80;99.90;;;;;;5060050;28;19913;-76
2022/03/18 01:52:00;;;;;;;;;;;6.30;99.90;;;;;;5060241;28;19913;-76
2022/03/18 01:57:10;;;;;;;;;;;5.90;99.90;;;;;;5059841;28;19990;-76
2022/03/18 01:59:36;;;;;;;;;;;5.90;99.90;;;;;;5058790;28;20316;-75
2022/03/18 02:02:01;;;;;;;;;;;6.00;99.90;;;;;;5060446;28;19931;-75
2022/03/18 02:04:27;;;;;;;;;;;6.00;99.90;;;;;;5060127;28;20365;-76
2022/03/18 02:06:53;;;;;;;;;;;5.90;99.90;;;;;;5058699;28;19909;-76
2022/03/18 02:09:19;;;;;;;;;;;6.00;99.90;;;;;;5059870;28;19913;-75
2022/03/18 02:11:46;;;;;;;;;;;6.00;99.90;;;;;;5059765;28;20435;-76
2022/03/18 02:14:12;;;;;;;;;;;6.00;99.90;;;;;;5059983;28;19936;-76
2022/03/18 02:16:39;;;;;;;;;;;6.30;99.90;;;;;;5060102;28;20281;-76
2022/03/18 02:19:08;;;;;;;;;;;6.20;99.90;;;;;;5059898;28;19962;-76
2022/03/18 02:21:35;;;;;;;;;;;6.00;99.90;;;;;;5060113;28;19913;-75
2022/03/18 02:24:00;;;;;;;;;;;6.10;99.90;;;;;;5058614;28;20490;-76
2022/03/18 02:26:26;;;;;;;;;;;6.30;99.90;;;;;;5060145;28;19992;-76
2022/03/18 02:28:52;;;;;;;;;;;6.10;99.90;;;;;;5059837;28;19912;-76
2022/03/18 02:31:18;;;;;;;;;;;6.10;99.90;;;;;;5059848;28;19909;-76
2022/03/18 02:33:44;;;;;;;;;;;6.00;99.90;;;;;;5060192;28;19954;-76
2022/03/18 02:36:09;;;;;;;;;;;6.00;99.90;;;;;;5060396;28;19908;-76
2022/03/18 02:38:35;;;;;;;;;;;5.90;99.90;;;;;;5058271;28;19920;-76
2022/03/18 02:41:00;;;;;;;;;;;5.90;99.90;;;;;;5059709;28;19913;-76
2022/03/18 02:43:26;;;;;;;;;;;6.20;99.90;;;;;;5059733;28;20369;-76
2022/03/18 02:45:52;;;;;;;;;;;6.50;99.90;;;;;;5059678;28;20385;-76
2022/03/18 02:48:17;;;;;;;;;;;6.50;99.90;;;;;;5059914;28;19909;-76
2022/03/18 02:50:43;;;;;;;;;;;6.30;99.90;;;;;;5059709;28;20427;-76
2022/03/18 02:53:10;;;;;;;;;;;6.30;99.90;;;;;;5059652;28;20000;-76
2022/03/18 02:55:36;;;;;;;;;;;6.20;99.90;;;;;;5059526;28;19909;-76
2022/03/18 02:58:01;;;;;;;;;;;6.20;99.90;;;;;;5059728;28;20258;-77
2022/03/18 03:00:27;;;;;;;;;;;6.40;99.90;;;;;;5056709;28;20274;-76
2022/03/18 03:02:52;;;;;;;;;;;6.40;99.90;;;;;;5056653;28;19909;-76
2022/03/18 03:08:02;;;;;;;;;;;6.10;99.90;;;;;;5056239;28;20364;-76
2022/03/18 03:10:29;;;;;;;;;;;6.10;99.90;;;;;;5056069;28;19912;-76
2022/03/18 03:12:55;;;;;;;;;;;5.90;99.90;;;;;;5054894;28;20293;-76
2022/03/18 03:15:21;;;;;;;;;;;5.90;99.90;;;;;;5056257;28;19963;-76
2022/03/18 03:17:46;;;;;;;;;;;6.10;99.90;;;;;;5056303;28;19909;-76
2022/03/18 03:20:12;;;;;;;;;;;6.00;99.90;;;;;;5055804;28;19909;-76
2022/03/18 03:22:38;;;;;;;;;;;5.80;99.90;;;;;;5056042;28;20323;-76
2022/03/18 03:25:03;;;;;;;;;;;5.80;99.90;;;;;;5055946;28;19921;-76
2022/03/18 03:27:32;;;;;;;;;;;5.60;99.90;;;;;;5055873;28;19909;-76
2022/03/18 03:29:58;;;;;;;;;;;5.50;99.90;;;;;;5055992;28;19912;-76
2022/03/18 03:32:24;;;;;;;;;;;5.50;99.90;;;;;;5056081;28;19909;-76
2022/03/18 03:34:50;;;;;;;;;;;5.40;99.90;;;;;;5055785;28;20043;-76
2022/03/18 03:37:15;;;;;;;;;;;5.40;99.90;;;;;;5055781;28;20288;-76
2022/03/18 03:39:41;;;;;;;;;;;5.40;99.90;;;;;;5055275;28;19924;-76
2022/03/18 03:42:06;;;;;;;;;;;5.40;99.90;;;;;;5055991;28;19999;-76
2022/03/18 03:44:32;;;;;;;;;;;5.50;99.90;;;;;;5055604;28;20377;-76
2022/03/18 03:46:57;;;;;;;;;;;5.80;99.90;;;;;;5055557;28;19909;-76
2022/03/18 03:49:23;;;;;;;;;;;5.90;99.90;;;;;;5055456;28;19913;-76
2022/03/18 03:51:48;;;;;;;;;;;5.90;99.90;;;;;;5055468;28;19908;-76
2022/03/18 03:54:14;;;;;;;;;;;5.60;99.90;;;;;;5054081;28;20381;-76
2022/03/18 03:56:40;;;;;;;;;;;5.50;99.90;;;;;;5055352;28;19909;-76
2022/03/18 03:59:05;;;;;;;;;;;5.40;99.90;;;;;;5055318;28;19915;-76
2022/03/18 04:01:31;;;;;;;;;;;5.60;99.90;;;;;;5055341;28;19920;-76
2022/03/18 04:03:58;;;;;;;;;;;5.50;99.90;;;;;;5053945;28;19908;-76
2022/03/18 04:06:23;;;;;;;;;;;5.40;99.90;;;;;;5055156;28;19958;-76
2022/03/18 04:08:49;;;;;;;;;;;5.40;99.90;;;;;;5055074;28;19992;-77
2022/03/18 04:11:15;;;;;;;;;;;5.60;99.90;;;;;;5054583;28;19909;-76
2022/03/18 04:13:40;;;;;;;;;;;5.50;99.90;;;;;;5055241;28;19913;-76
2022/03/18 04:16:06;;;;;;;;;;;5.40;99.90;;;;;;5055374;28;19909;-75
2022/03/18 04:18:31;;;;;;;;;;;5.40;99.90;;;;;;5054890;28;19956;-76
2022/03/18 04:20:57;;;;;;;;;;;5.50;99.90;;;;;;5054930;28;19908;-76
2022/03/18 04:23:23;;;;;;;;;;;5.50;99.90;;;;;;5054717;28;19909;-76
2022/03/18 04:25:51;;;;;;;;;;;5.40;99.90;;;;;;5054904;28;19913;-76
2022/03/18 04:28:17;;;;;;;;;;;5.50;99.90;;;;;;5054790;28;19962;-76
2022/03/18 04:30:43;;;;;;;;;;;5.40;99.90;;;;;;5053381;28;19912;-76
2022/03/18 04:33:08;;;;;;;;;;;5.50;99.90;;;;;;5054669;28;19909;-76
2022/03/18 04:35:34;;;;;;;;;;;5.50;99.90;;;;;;5054649;28;19908;-76
2022/03/18 04:38:00;;;;;;;;;;;5.60;99.90;;;;;;5054383;28;19948;-76
2022/03/18 04:40:25;;;;;;;;;;;5.50;99.90;;;;;;5054654;28;19909;-77
2022/03/18 04:42:51;;;;;;;;;;;5.50;99.90;;;;;;5054587;28;19936;-77
2022/03/18 04:45:17;;;;;;;;;;;5.50;99.90;;;;;;5054430;28;20392;-76
2022/03/18 04:47:42;;;;;;;;;;;5.70;99.90;;;;;;5054366;28;19916;-76
2022/03/18 04:50:09;;;;;;;;;;;5.70;99.90;;;;;;5054246;28;19962;-76
2022/03/18 04:52:35;;;;;;;;;;;5.70;99.90;;;;;;5054318;28;19909;-76
2022/03/18 04:55:00;;;;;;;;;;;5.70;99.90;;;;;;5054200;28;20003;-76
2022/03/18 04:57:26;;;;;;;;;;;5.60;99.90;;;;;;5054248;28;19912;-76
2022/03/18 04:59:52;;;;;;;;;;;5.60;99.90;;;;;;5054184;28;19912;-76
2022/03/18 05:02:20;;;;;;;;;;;5.70;99.90;;;;;;5054216;28;20449;-75
2022/03/18 05:04:48;;;;;;;;;;;5.70;99.90;;;;;;5052848;28;19988;-76
2022/03/18 05:07:14;;;;;;;;;;;5.50;99.90;;;;;;5054259;28;20007;-77
2022/03/18 05:09:41;;;;;;;;;;;5.50;99.90;;;;;;5054273;28;19951;-76
2022/03/18 05:12:16;;;;;;;;;;;5.60;99.90;;;;;;5054010;28;19913;-76
2022/03/18 05:14:41;;;;;;;;;;;5.50;99.90;;;;;;5054363;28;20373;-77
2022/03/18 05:17:08;;;;;;;;;;;5.40;99.90;;;;;;5053405;28;19966;-75
2022/03/18 05:19:34;;;;;;;;;;;5.40;99.90;;;;;;5054075;28;19917;-76
2022/03/18 05:21:59;;;;;;;;;;;5.30;99.90;;;;;;5053188;28;19915;-76
2022/03/18 05:24:26;;;;;;;;;;;5.30;99.90;;;;;;5053605;28;19909;-76
2022/03/18 05:26:52;;;;;;;;;;;5.50;99.90;;;;;;5053925;28;19913;-76
2022/03/18 05:29:18;;;;;;;;;;;5.40;99.90;;;;;;5053943;28;19909;-77
2022/03/18 05:31:46;;;;;;;;;;;5.40;99.90;;;;;;5052496;28;19970;-75
2022/03/18 05:34:12;;;;;;;;;;;5.40;99.90;;;;;;5053704;28;20286;-76
2022/03/18 05:36:39;;;;;;;;;;;5.40;99.90;;;;;;5054146;28;19916;-76
2022/03/18 05:39:04;;;;;;;;;;;5.30;99.90;;;;;;5053548;28;19921;-77
2022/03/18 05:41:31;;;;;;;;;;;5.20;99.90;;;;;;5052328;28;20007;-76
2022/03/18 05:43:57;;;;;;;;;;;5.10;99.90;;;;;;5053598;28;19909;-76
2022/03/18 05:46:22;;;;;;;;;;;4.90;99.90;;;;;;5053536;28;19909;-76
2022/03/18 05:48:48;;;;;;;;;;;4.90;99.90;;;;;;5053550;28;19996;-76
2022/03/18 05:51:14;;;;;;;;;;;4.90;99.90;;;;;;5053648;28;19995;-75
2022/03/18 05:53:39;;;;;;;;;;;5.00;99.90;;;;;;5053664;28;19931;-77
2022/03/18 05:58:49;;;;;;;;;;;5.30;99.90;;;;;;5053123;28;19954;-76
2022/03/18 06:01:15;;;;;;;;;;;5.40;99.90;;;;;;5053379;28;19909;-76
2022/03/18 06:03:41;;;;;;;;;;;5.40;99.90;;;;;;5052085;28;20339;-76
2022/03/18 06:06:06;;;;;;;;;;;5.40;99.90;;;;;;5053149;28;19908;-76
2022/03/18 06:14:00;;;;;;;;;;;5.40;99.90;;;;;;5053197;28;19916;-76
2022/03/18 06:16:26;;;;;;;;;;;5.50;99.90;;;;;;5053267;28;19909;-76
2022/03/18 06:18:52;;;;;;;;;;;5.60;99.90;;;;;;5053232;28;20357;-76
2022/03/18 06:21:20;;;;;;;;;;;5.70;99.90;;;;;;5053207;28;19916;-75
2022/03/18 06:23:46;;;;;;;;;;;5.80;99.90;;;;;;5053374;28;19909;-76
2022/03/18 06:26:11;;;;;;;;;;;5.80;99.90;;;;;;5053203;28;20300;-76
2022/03/18 06:28:37;;;;;;;;;;;5.80;99.90;;;;;;5053286;28;19960;-75
2022/03/18 06:31:03;;;;;;;;;;;5.80;99.90;;;;;;5053130;28;19916;-76
2022/03/18 06:33:30;;;;;;;;;;;5.90;99.90;;;;;;5054035;28;20369;-75
2022/03/18 06:35:55;;;;;;;;;;;6.00;99.90;;;;;;5057195;28;19999;-76
2022/03/18 06:38:21;;;;;;;;;;;6.00;99.90;;;;;;5056700;28;20375;-75
2022/03/18 06:40:46;;;;;;;;;;;6.20;99.90;;;;;;5056770;28;19967;-76
2022/03/18 06:43:12;;;;;;;;;;;6.50;99.90;;;;;;5057052;28;20365;-76
2022/03/18 06:45:38;;;;;;;;;;;6.80;99.90;;;;;;5056716;28;20003;-76
2022/03/18 06:48:03;;;;;;;;;;;7.10;99.90;;;;;;5056660;28;19912;-77
2022/03/18 06:50:29;;;;;;;;;;;7.40;99.90;;;;;;5056630;28;19909;-76
2022/03/18 06:52:55;;;;;;;;;;;7.80;99.90;;;;;;5056548;28;19909;-76
2022/03/18 06:55:20;;;;;;;;;;;8.00;99.90;;;;;;5056435;28;19913;-76
2022/03/18 06:57:46;;;;;;;;;;;8.40;99.90;;;;;;5056480;28;20323;-76
2022/03/18 07:00:12;;;;;;;;;;;9.00;99.90;;;;;;5055059;28;19913;-76
2022/03/18 07:02:37;;;;;;;;;;;9.00;99.90;;;;;;5056275;28;19908;-76
2022/03/18 07:05:03;;;;;;;;;;;9.40;99.90;;;;;;5055090;28;19909;-76
2022/03/18 07:07:29;;;;;;;;;;;10.00;99.90;;;;;;5056475;28;20285;-76
2022/03/18 07:09:55;;;;;;;;;;;10.10;99.90;;;;;;5056275;28;19909;-76
2022/03/18 07:12:20;;;;;;;;;;;9.60;99.90;;;;;;5056377;28;20292;-76
2022/03/18 07:14:46;;;;;;;;;;;9.70;99.90;;;;;;5056224;28;20389;-76
2022/03/18 07:19:55;;;;;;;;;;;9.50;99.90;;;;;;5055820;28;19919;-76
2022/03/18 07:22:23;;;;;;;;;;;9.60;99.90;;;;;;5056049;28;20289;-76
2022/03/18 07:24:49;;;;;;;;;;;9.90;99.90;;;;;;5056013;28;19916;-76
2022/03/18 07:27:16;;;;;;;;;;;10.10;99.90;;;;;;5055940;28;19968;-76
2022/03/18 07:29:42;;;;;;;;;;;10.50;99.90;;;;;;5056034;28;19913;-76
2022/03/18 07:32:07;;;;;;;;;;;10.80;99.90;;;;;;5055962;28;20328;-76
2022/03/18 07:34:33;;;;;;;;;;;10.60;99.90;;;;;;5055821;28;19909;-77
2022/03/18 07:36:58;;;;;;;;;;;10.60;99.90;;;;;;5055956;28;20003;-76
2022/03/18 07:39:24;;;;;;;;;;;10.50;99.90;;;;;;5055452;28;19971;-76
2022/03/18 07:41:50;;;;;;;;;;;10.50;99.90;;;;;;5055644;28;20285;-76
2022/03/18 07:44:15;;;;;;;;;;;10.60;99.90;;;;;;5055588;28;19909;-76
2022/03/18 07:46:41;;;;;;;;;;;10.60;99.90;;;;;;5055162;28;19959;-76
2022/03/18 07:49:07;;;;;;;;;;;10.70;99.90;;;;;;5055494;28;19913;-76
2022/03/18 07:51:32;;;;;;;;;;;10.80;99.90;;;;;;5054950;28;19916;-76
2022/03/18 07:53:58;;;;;;;;;;;11.30;99.90;;;;;;5055235;28;19909;-76
2022/03/18 07:56:24;;;;;;;;;;;12.00;99.90;;;;;;5055271;28;19916;-76
2022/03/18 07:58:51;;;;;;;;;;;12.60;99.90;;;;;;5053976;28;20377;-77
2022/03/18 08:01:16;;;;;;;;;;;13.30;99.90;;;;;;5055477;28;20317;-77
2022/03/18 08:03:42;;;;;;;;;;;14.00;99.90;;;;;;5055513;28;20016;-77
2022/03/18 08:06:08;;;;;;;;;;;14.30;99.60;;;;;;5055313;28;19915;-77
2022/03/18 08:08:33;;;;;;;;;;;14.80;98.70;;;;;;5055231;28;19909;-77
2022/03/18 08:11:00;;;;;;;;;;;15.50;96.70;;;;;;5053894;28;20006;-77
2022/03/18 08:13:25;;;;;;;;;;;16.20;95.10;;;;;;5055150;28;20388;-77
2022/03/18 08:15:51;;;;;;;;;;;16.50;92.80;;;;;;5053446;28;19912;-77
2022/03/18 08:18:18;;;;;;;;;;;17.60;92.00;;;;;;5054990;28;19935;-77
2022/03/18 08:20:44;;;;;;;;;;;17.40;89.90;;;;;;5054879;28;19935;-77
2022/03/18 08:23:12;;;;;;;;;;;17.80;86.80;;;;;;5053576;28;20389;-77
2022/03/18 08:25:38;;;;;;;;;;;17.90;86.80;;;;;;5054944;28;19916;-77
2022/03/18 08:28:05;;;;;;;;;;;18.40;84.10;;;;;;5054561;28;19988;-77
2022/03/18 08:30:31;;;;;;;;;;;18.90;80.00;;;;;;5054799;28;19916;-77
2022/03/18 08:32:57;;;;;;;;;;;19.30;76.60;;;;;;5054753;28;19941;-77
2022/03/18 08:35:22;;;;;;;;;;;18.80;76.30;;;;;;5053393;28;19909;-77
2022/03/18 08:37:57;;;;;;;;;;;18.90;75.70;;;;;;5054692;28;19916;-77
2022/03/18 08:40:24;;;;;;;;;;;19.10;73.00;;;;;;5054834;28;20361;-77
2022/03/18 08:42:50;;;;;;;;;;;19.50;69.40;;;;;;5053309;28;20293;-77
2022/03/18 08:45:16;;;;;;;;;;;19.50;69.60;;;;;;5054520;28;19913;-78
2022/03/18 08:47:43;;;;;;;;;;;19.60;69.50;;;;;;5054687;28;20372;-77
2022/03/18 08:50:09;;;;;;;;;;;20.00;66.50;;;;;;5054442;28;19909;-78
2022/03/18 08:52:35;;;;;;;;;;;20.10;65.60;;;;;;5054424;28;20404;-77
2022/03/18 08:55:00;;;;;;;;;;;20.20;65.90;;;;;;5053030;28;19909;-78
2022/03/18 08:57:31;;;;;;;;;;;20.60;63.60;;;;;;5054242;28;19978;-77
2022/03/18 08:59:56;;;;;;;;;;;20.30;61.70;;;;;;5054909;28;20312;-77
2022/03/18 09:02:22;;;;;;;;;;;20.90;60.80;;;;;;5054183;28;19962;-78
2022/03/18 09:04:51;;;;;;;;;;;20.60;60.70;;;;;;5054145;28;19948;-78
2022/03/18 09:07:17;;;;;;;;;;;21.50;58.80;;;;;;5054194;28;19909;-77
2022/03/18 09:09:42;;;;;;;;;;;21.30;58.70;;;;;;5053979;28;19913;-77
2022/03/18 09:12:08;;;;;;;;;;;21.10;58.60;;;;;;5054019;28;19916;-77
2022/03/18 09:14:33;;;;;;;;;;;21.60;56.80;;;;;;5053989;28;20277;-77
2022/03/18 09:16:59;;;;;;;;;;;21.80;55.70;;;;;;5052322;28;19916;-77
2022/03/18 09:19:25;;;;;;;;;;;21.60;56.30;;;;;;5053842;28;20434;-77
2022/03/18 09:21:51;;;;;;;;;;;22.20;56.60;;;;;;5054121;28;20430;-71
2022/03/18 09:24:17;;;;;;;;;;;24.10;55.60;;;;;;5053580;28;19951;-75
2022/03/18 09:26:42;;;;;;;;;;;22.80;52.20;;;;;;5052473;28;20281;-77
2022/03/18 09:29:08;;;;;;;;;;;22.00;52.50;;;;;;5053661;28;19913;-77
2022/03/18 09:31:33;;;;;;;;;;;21.90;51.60;;;;;;5053759;28;19912;-77
2022/03/18 09:33:59;;;;;;;;;;;21.50;51.40;;;;;;5053894;28;20003;-78
2022/03/18 09:36:25;;;;;;;;;;;22.10;51.00;;;;;;5053679;28;19915;-77
2022/03/18 09:38:51;;;;;;;;;;;22.10;51.10;;;;;;5053479;28;20008;-77
2022/03/18 09:41:17;;;;;;;;;;;22.40;51.10;;;;;;5053647;28;19996;-76
2022/03/18 09:43:42;;;;;;;;;;;22.60;51.70;;;;;;5053954;28;20353;-78
2022/03/18 09:46:10;;;;;;;;;;;23.10;48.90;;;;;;5053526;28;19915;-79
2022/03/18 09:48:36;;;;;;;;;;;24.10;49.40;;;;;;5053729;28;20431;-79
2022/03/18 09:51:01;;;;;;;;;;;24.30;48.30;;;;;;5053555;28;19921;-77
2022/03/18 09:53:27;;;;;;;;;;;24.90;47.80;;;;;;5053474;28;20046;-78
2022/03/18 09:55:53;;;;;;;;;;;25.00;45.60;;;;;;5053766;28;19944;-78
2022/03/18 09:58:22;;;;;;;;;;;25.20;45.90;;;;;;5053654;28;20322;-76
2022/03/18 10:00:50;;;;;;;;;;;25.80;45.60;;;;;;5053642;28;19909;-79
2022/03/18 10:03:17;;;;;;;;;;;25.90;43.60;;;;;;5053402;28;19934;-79
2022/03/18 10:05:46;;;;;;;;;;;26.10;45.10;;;;;;5052144;28;19909;-77
2022/03/18 10:08:12;;;;;;;;;;;25.70;43.30;;;;;;5053424;28;19909;-77
2022/03/18 10:10:47;;;;;;;;;;;24.80;44.60;;;;;;5056010;28;19919;-78
2022/03/18 10:13:15;;;;;;;;;;;24.70;46.20;;;;;;5057414;28;19963;-79
2022/03/18 10:15:40;;;;;;;;;;;24.70;45.00;;;;;;5055941;28;20361;-78
2022/03/18 10:18:10;;;;;;;;;;;24.40;44.00;;;;;;5057360;28;19909;-78
2022/03/18 10:20:38;;;;;;;;;;;24.40;45.10;;;;;;5055924;28;20430;-79
2022/03/18 10:23:14;;;;;;;;;;;25.50;43.70;;;;;;5057360;28;20415;-78
2022/03/18 10:25:42;;;;;;;;;;;26.70;42.90;;;;;;5057113;28;19916;-77
2022/03/18 10:28:09;;;;;;;;;;;25.60;43.20;;;;;;5057123;28;19999;-78
2022/03/18 10:30:35;;;;;;;;;;;26.10;42.90;;;;;;5056908;28;20412;-79
2022/03/18 10:33:01;;;;;;;;;;;27.70;42.70;;;;;;5055726;28;19951;-77
2022/03/18 10:38:28;;;;;;;;;;;30.20;39.30;;;;;;5056545;28;19975;-77
2022/03/18 10:40:54;;;;;;;;;;;31.60;37.20;;;;;;5056813;28;19963;-79
2022/03/18 10:43:20;;;;;;;;;;;31.70;35.60;;;;;;5055565;28;19916;-80
2022/03/18 10:46:01;;;;;;;;;;;31.80;35.80;;;;;;5056883;28;19909;-77
2022/03/18 10:48:27;;;;;;;;;;;32.20;35.40;;;;;;5056744;28;19909;-77
2022/03/18 10:51:05;;;;;;;;;;;31.60;33.30;;;;;;5056953;28;19920;-79
2022/03/18 10:53:32;;;;;;;;;;;32.20;34.10;;;;;;5056675;28;19909;-78
2022/03/18 10:56:01;;;;;;;;;;;30.70;32.70;;;;;;5056644;28;20285;-78
2022/03/18 10:58:29;;;;;;;;;;;31.40;33.10;;;;;;5055177;28;19909;-79
2022/03/18 11:00:58;;;;;;;;;;;30.30;34.10;;;;;;5056665;28;19916;-77
2022/03/18 11:03:25;;;;;;;;;;;29.80;33.30;;;;;;5056522;28;19909;-79
2022/03/18 11:05:51;;;;;;;;;;;29.60;33.30;;;;;;5056463;28;20289;-79
2022/03/18 11:08:21;;;;;;;;;;;30.30;33.80;;;;;;5056352;28;19909;-78
2022/03/18 11:13:38;;;;;;;;;;;30.90;31.90;;;;;;5056011;28;19916;-78
2022/03/18 11:16:03;;;;;;;;;;;31.10;32.50;;;;;;5056164;28;19909;-78
2022/03/18 11:18:30;;;;;;;;;;;31.40;31.80;;;;;;5056535;28;19916;-77
2022/03/18 11:20:57;;;;;;;;;;;31.30;31.40;;;;;;5054774;28;19925;-77
2022/03/18 11:23:25;;;;;;;;;;;29.50;30.90;;;;;;5056040;28;19909;-77
2022/03/18 11:25:54;;;;;;;;;;;28.50;33.50;;;;;;5056068;28;19990;-76
2022/03/18 11:28:20;;;;;;;;;;;29.90;32.40;;;;;;5056131;28;19916;-77
2022/03/18 11:30:49;;;;;;;;;;;32.30;32.50;;;;;;5055839;28;19912;-77
2022/03/18 11:33:15;;;;;;;;;;;33.90;32.20;;;;;;5055838;28;19909;-79
2022/03/18 11:35:53;;;;;;;;;;;32.90;31.10;;;;;;5055794;28;19915;-79
2022/03/18 11:38:18;;;;;;;;;;;34.00;30.90;;;;;;5055554;28;19928;-78
2022/03/18 11:40:53;;;;;;;;;;;33.50;30.80;;;;;;5055880;28;19909;-78
2022/03/18 11:43:33;;;;;;;;;;;32.10;30.70;;;;;;5055862;28;19909;-77
2022/03/18 11:46:28;;;;;;;;;;;31.80;30.40;;;;;;5055690;28;19912;-78
2022/03/18 11:48:58;;;;;;;;;;;31.80;30.40;;;;;;5042289;28;19908;-78
2022/03/18 11:51:36;;;;;;;;;;;32.20;30.20;;;;;;5055628;28;19909;-77
2022/03/18 11:54:03;;;;;;;;;;;32.30;30.00;;;;;;5055469;28;20051;-78
2022/03/18 11:56:47;;;;;;;;;;;32.30;30.10;;;;;;5054171;28;20369;-79
2022/03/18 11:59:28;;;;;;;;;;;32.80;31.00;;;;;;5055455;28;19909;-78
2022/03/18 12:01:56;;;;;;;;;;;36.30;30.20;;;;;;5054178;28;20277;-80
2022/03/18 12:04:34;;;;;;;;;;;35.30;28.80;;;;;;5055269;28;19916;-79
2022/03/18 12:07:15;;;;;;;;;;;36.30;29.30;;;;;;5055401;28;19958;-77
2022/03/18 12:09:49;;;;;;;;;;;35.10;29.80;;;;;;5055203;28;19913;-77
2022/03/18 12:12:16;;;;;;;;;;;34.90;28.80;;;;;;5055140;28;19908;-79
2022/03/18 12:14:42;;;;;;;;;;;34.30;30.30;;;;;;5055396;28;19913;-78
2022/03/18 12:17:07;;;;;;;;;;;35.80;29.50;;;;;;5053728;28;20148;-79
2022/03/18 12:19:35;;;;;;;;;;;37.40;29.90;;;;;;5055054;28;19916;-79
2022/03/18 12:22:01;;;;;;;;;;;38.20;29.70;;;;;;5054919;28;20000;-78
2022/03/18 12:24:28;;;;;;;;;;;38.30;29.90;;;;;;5055316;28;20357;-78
2022/03/18 12:26:54;;;;;;;;;;;37.00;29.00;;;;;;5055167;28;19916;-79
2022/03/18 12:29:26;;;;;;;;;;;36.20;29.30;;;;;;5054842;28;19913;-78
2022/03/18 12:32:00;;;;;;;;;;;36.60;28.60;;;;;;5054461;28;19912;-80
2022/03/18 12:34:26;;;;;;;;;;;37.10;28.50;;;;;;5054982;28;20312;-79
2022/03/18 12:36:51;;;;;;;;;;;39.40;28.40;;;;;;5054705;28;19927;-80
2022/03/18 12:39:17;;;;;;;;;;;38.40;28.20;;;;;;5054341;28;19921;-79
2022/03/18 12:41:43;;;;;;;;;;;36.90;27.70;;;;;;5053210;28;19916;-75
2022/03/18 12:44:09;;;;;;;;;;;37.20;28.40;;;;;;5053239;28;19909;-77
2022/03/18 12:46:35;;;;;;;;;;;37.60;28.60;;;;;;5054377;28;20504;-78
2022/03/18 12:49:01;;;;;;;;;;;39.70;28.60;;;;;;5054474;28;19909;-78
2022/03/18 12:51:27;;;;;;;;;;;41.40;27.70;;;;;;5053056;28;19912;-78
2022/03/18 12:53:56;;;;;;;;;;;42.10;28.00;;;;;;5054320;28;19916;-77
2022/03/18 12:56:22;;;;;;;;;;;40.80;28.60;;;;;;5054479;28;19935;-77
2022/03/18 12:58:48;;;;;;;;;;;41.70;28.30;;;;;;5052965;28;19936;-78
2022/03/18 13:01:15;;;;;;;;;;;44.20;27.90;;;;;;5054459;28;19959;-77
2022/03/18 13:03:50;;;;;;;;;;;43.90;27.00;;;;;;5054157;28;19913;-76
2022/03/18 13:06:22;;;;;;;;;;;41.00;27.60;;;;;;5054171;28;20056;-78
2022/03/18 13:08:54;;;;;;;;;;;42.10;27.10;;;;;;5054151;28;20350;-77
2022/03/18 13:11:20;;;;;;;;;;;43.10;27.40;;;;;;5054147;28;19987;-77
2022/03/18 13:13:46;;;;;;;;;;;41.60;26.60;;;;;;5052723;28;19958;-75
2022/03/18 13:16:13;;;;;;;;;;;43.80;27.30;;;;;;5054104;28;20277;-76
2022/03/18 13:18:47;;;;;;;;;;;41.00;26.70;;;;;;5053927;28;19936;-75
2022/03/18 13:21:13;;;;;;;;;;;39.70;27.00;;;;;;5054045;28;20356;-76
2022/03/18 13:23:40;;;;;;;;;;;40.50;27.30;;;;;;5054105;28;19956;-78
2022/03/18 13:26:06;;;;;;;;;;;40.40;27.40;;;;;;5053809;28;20366;-76
2022/03/18 13:28:32;;;;;;;;;;;41.30;27.40;;;;;;5053842;28;19919;-75
2022/03/18 13:33:47;;;;;;;;;;;42.20;27.20;;;;;;5053832;28;20455;-77
2022/03/18 13:36:25;;;;;;;;;;;42.40;26.90;;;;;;5053759;28;19916;-77
2022/03/18 13:38:52;;;;;;;;;;;41.80;27.20;;;;;;5053498;28;19928;-75
2022/03/18 13:41:17;;;;;;;;;;;41.30;27.00;;;;;;5052318;28;19951;-76
2022/03/18 13:43:52;;;;;;;;;;;40.20;26.90;;;;;;5051824;28;20308;-76
2022/03/18 13:46:19;;;;;;;;;;;38.90;27.00;;;;;;5051979;28;19913;-75
2022/03/18 13:48:50;;;;;;;;;;;40.10;27.50;;;;;;5053698;28;19909;-77
2022/03/18 13:51:35;;;;;;;;;;;39.70;27.40;;;;;;5053691;28;19913;-77
2022/03/18 13:54:09;;;;;;;;;;;41.10;27.30;;;;;;5053526;28;20377;-76
2022/03/18 13:56:41;;;;;;;;;;;41.20;26.70;;;;;;5052192;28;19909;-76
2022/03/18 13:59:14;;;;;;;;;;;41.10;27.20;;;;;;5053533;28;20363;-74
2022/03/18 14:02:15;;;;;;;;;;;39.70;27.90;;;;;;5053725;28;19912;-75
2022/03/18 14:04:43;;;;;;;;;;;37.40;28.70;;;;;;4972019;28;19936;-77
2022/03/18 14:07:16;;;;;;;;;;;35.90;29.40;;;;;;5037732;28;19956;-77
2022/03/18 14:09:53;;;;;;;;;;;33.70;30.00;;;;;;5053493;28;19917;-77
2022/03/18 14:12:20;;;;;;;;;;;32.50;31.00;;;;;;5053380;28;20391;-77
2022/03/18 14:15:06;;;;;;;;;;;32.30;31.20;;;;;;5053776;28;19909;-77
2022/03/18 14:17:34;;;;;;;;;;;32.70;31.00;;;;;;5053633;28;19987;-76
2022/03/18 14:20:00;;;;;;;;;;;28.50;32.20;;;;;;5053156;28;20266;-76
2022/03/18 14:22:26;;;;;;;;;;;26.90;32.50;;;;;;5047991;28;19959;-76
2022/03/18 14:24:52;;;;;;;;;;;25.90;32.10;;;;;;5041573;28;19963;-78
2022/03/18 14:27:18;;;;;;;;;;;25.30;32.80;;;;;;5050528;28;19921;-77
2022/03/18 14:29:44;;;;;;;;;;;25.40;32.50;;;;;;5035664;28;19916;-77
2022/03/18 14:32:09;;;;;;;;;;;25.10;32.20;;;;;;5033384;28;19948;-76
2022/03/18 14:34:35;;;;;;;;;;;25.40;31.70;;;;;;5033233;28;19948;-77
2022/03/18 14:37:01;;;;;;;;;;;25.50;31.20;;;;;;5033400;28;19909;-76
2022/03/18 14:39:26;;;;;;;;;;;25.70;31.10;;;;;;5038080;28;19944;-77
2022/03/18 14:41:52;;;;;;;;;;;25.40;31.50;;;;;;5033314;28;19921;-77
2022/03/18 14:44:18;;;;;;;;;;;25.20;30.90;;;;;;5033131;28;20000;-78
2022/03/18 14:46:44;;;;;;;;;;;25.10;31.60;;;;;;5033059;28;19910;-78
2022/03/18 14:49:10;;;;;;;;;;;24.60;31.40;;;;;;5033128;28;19916;-77
2022/03/18 14:51:35;;;;;;;;;;;24.70;32.50;;;;;;5033480;28;19910;-76
2022/03/18 14:54:01;;;;;;;;;;;24.80;33.10;;;;;;5032988;28;20290;-76